sensor_id;sensor_type;location;lat;lon;timestamp;P1;durP1;ratioP1;P2;durP2;ratioP2
40621;SDS011;26324;52.040;11.528;2023-05-13T00:02:09;4.50;;;2.22;;
40621;SDS011;26324;52.040;11.528;2023-05-13T00:04:37;2.92;;;1.98;;
40621;SDS011;26324;52.040;11.528;2023-05-13T00:07:05;4.07;;;2.42;;
40621;SDS011;26324;52.040;11.528;2023-05-13T00:09:33;5.13;;;2.35;;
40621;SDS011;26324;52.040;11.528;2023-05-13T00:12:00;3.92;;;2.33;;
40621;SDS011;26324;52.040;11.528;2023-05-13T00:14:29;6.95;;;2.13;;
40621;SDS011;26324;52.040;11.528;2023-05-13T00:16:56;3.33;;;2.10;;
40621;SDS011;26324;52.040;11.528;2023-05-13T00:19:24;2.67;;;2.00;;
40621;SDS011;26324;52.040;11.528;2023-05-13T00:21:51;4.45;;;2.55;;
40621;SDS011;26324;52.040;11.528;2023-05-13T00:24:19;3.70;;;1.92;;
40621;SDS011;26324;52.040;11.528;2023-05-13T00:26:46;5.78;;;2.65;;
40621;SDS011;26324;52.040;11.528;2023-05-13T00:29:13;4.28;;;2.55;;
40621;SDS011;26324;52.040;11.528;2023-05-13T00:31:41;2.85;;;2.03;;
40621;SDS011;26324;52.040;11.528;2023-05-13T00:34:08;4.72;;;2.47;;
40621;SDS011;26324;52.040;11.528;2023-05-13T00:36:36;3.40;;;2.42;;
40621;SDS011;26324;52.040;11.528;2023-05-13T00:39:03;5.25;;;2.35;;
40621;SDS011;26324;52.040;11.528;2023-05-13T00:41:31;7.20;;;2.63;;
40621;SDS011;26324;52.040;11.528;2023-05-13T00:43:58;3.78;;;2.70;;
40621;SDS011;26324;52.040;11.528;2023-05-13T00:46:29;4.25;;;2.63;;
40621;SDS011;26324;52.040;11.528;2023-05-13T00:48:59;7.95;;;2.42;;
40621;SDS011;26324;52.040;11.528;2023-05-13T00:51:27;6.35;;;2.72;;
40621;SDS011;26324;52.040;11.528;2023-05-13T00:53:55;3.88;;;2.55;;
40621;SDS011;26324;52.040;11.528;2023-05-13T00:56:25;4.88;;;2.20;;
40621;SDS011;26324;52.040;11.528;2023-05-13T00:58:54;5.35;;;2.58;;
40621;SDS011;26324;52.040;11.528;2023-05-13T01:01:25;3.85;;;2.58;;
40621;SDS011;26324;52.040;11.528;2023-05-13T01:04:20;5.57;;;2.17;;
40621;SDS011;26324;52.040;11.528;2023-05-13T01:07:11;3.25;;;1.95;;
40621;SDS011;26324;52.040;11.528;2023-05-13T01:09:47;3.35;;;2.08;;
40621;SDS011;26324;52.040;11.528;2023-05-13T01:12:30;3.28;;;2.40;;
40621;SDS011;26324;52.040;11.528;2023-05-13T01:15:04;4.40;;;2.38;;
40621;SDS011;26324;52.040;11.528;2023-05-13T01:20:04;4.75;;;2.50;;
40621;SDS011;26324;52.040;11.528;2023-05-13T01:22:32;3.80;;;2.45;;
40621;SDS011;26324;52.040;11.528;2023-05-13T01:25:00;3.08;;;2.30;;
40621;SDS011;26324;52.040;11.528;2023-05-13T01:27:28;3.70;;;1.90;;
40621;SDS011;26324;52.040;11.528;2023-05-13T01:29:59;3.58;;;2.42;;
40621;SDS011;26324;52.040;11.528;2023-05-13T01:32:29;4.40;;;2.50;;
40621;SDS011;26324;52.040;11.528;2023-05-13T01:34:58;3.17;;;1.92;;
40621;SDS011;26324;52.040;11.528;2023-05-13T01:37:29;3.97;;;2.15;;
40621;SDS011;26324;52.040;11.528;2023-05-13T01:39:58;2.92;;;1.80;;
40621;SDS011;26324;52.040;11.528;2023-05-13T01:42:29;3.55;;;2.55;;
40621;SDS011;26324;52.040;11.528;2023-05-13T01:44:56;6.00;;;2.08;;
40621;SDS011;26324;52.040;11.528;2023-05-13T01:47:24;4.38;;;2.30;;
40621;SDS011;26324;52.040;11.528;2023-05-13T01:49:51;6.68;;;2.55;;
40621;SDS011;26324;52.040;11.528;2023-05-13T01:52:18;4.13;;;1.80;;
40621;SDS011;26324;52.040;11.528;2023-05-13T01:54:47;6.32;;;2.60;;
40621;SDS011;26324;52.040;11.528;2023-05-13T01:57:14;2.88;;;2.10;;
40621;SDS011;26324;52.040;11.528;2023-05-13T01:59:42;3.75;;;2.05;;
40621;SDS011;26324;52.040;11.528;2023-05-13T02:02:09;7.18;;;2.65;;
40621;SDS011;26324;52.040;11.528;2023-05-13T02:04:36;3.58;;;2.50;;
40621;SDS011;26324;52.040;11.528;2023-05-13T02:07:04;4.22;;;2.30;;
40621;SDS011;26324;52.040;11.528;2023-05-13T02:09:32;5.40;;;2.70;;
40621;SDS011;26324;52.040;11.528;2023-05-13T02:11:59;3.75;;;2.47;;
40621;SDS011;26324;52.040;11.528;2023-05-13T02:14:28;7.13;;;2.67;;
40621;SDS011;26324;52.040;11.528;2023-05-13T02:16:55;4.78;;;2.60;;
40621;SDS011;26324;52.040;11.528;2023-05-13T02:19:22;4.85;;;2.75;;
40621;SDS011;26324;52.040;11.528;2023-05-13T02:21:50;3.13;;;2.40;;
40621;SDS011;26324;52.040;11.528;2023-05-13T02:24:17;4.75;;;2.30;;
40621;SDS011;26324;52.040;11.528;2023-05-13T02:26:45;5.00;;;3.08;;
40621;SDS011;26324;52.040;11.528;2023-05-13T02:29:12;4.30;;;2.63;;
40621;SDS011;26324;52.040;11.528;2023-05-13T02:31:40;5.05;;;2.80;;
40621;SDS011;26324;52.040;11.528;2023-05-13T02:34:09;4.63;;;2.60;;
40621;SDS011;26324;52.040;11.528;2023-05-13T02:36:36;4.60;;;2.88;;
40621;SDS011;26324;52.040;11.528;2023-05-13T02:39:05;4.75;;;2.50;;
40621;SDS011;26324;52.040;11.528;2023-05-13T02:41:32;7.55;;;2.92;;
40621;SDS011;26324;52.040;11.528;2023-05-13T02:44:00;3.55;;;2.78;;
40621;SDS011;26324;52.040;11.528;2023-05-13T02:46:28;3.75;;;2.55;;
40621;SDS011;26324;52.040;11.528;2023-05-13T02:48:55;5.57;;;2.45;;
40621;SDS011;26324;52.040;11.528;2023-05-13T02:51:22;4.35;;;2.70;;
40621;SDS011;26324;52.040;11.528;2023-05-13T02:53:50;7.25;;;3.20;;
40621;SDS011;26324;52.040;11.528;2023-05-13T02:56:17;5.47;;;2.90;;
40621;SDS011;26324;52.040;11.528;2023-05-13T02:58:45;4.32;;;2.63;;
40621;SDS011;26324;52.040;11.528;2023-05-13T03:01:12;3.72;;;2.97;;
40621;SDS011;26324;52.040;11.528;2023-05-13T03:03:40;8.57;;;2.83;;
40621;SDS011;26324;52.040;11.528;2023-05-13T03:06:08;4.90;;;2.80;;
40621;SDS011;26324;52.040;11.528;2023-05-13T03:08:36;6.10;;;2.83;;
40621;SDS011;26324;52.040;11.528;2023-05-13T03:11:04;4.95;;;2.80;;
40621;SDS011;26324;52.040;11.528;2023-05-13T03:13:31;4.05;;;2.90;;
40621;SDS011;26324;52.040;11.528;2023-05-13T03:15:59;5.07;;;2.40;;
40621;SDS011;26324;52.040;11.528;2023-05-13T03:18:27;3.75;;;2.60;;
40621;SDS011;26324;52.040;11.528;2023-05-13T03:20:58;4.03;;;2.70;;
40621;SDS011;26324;52.040;11.528;2023-05-13T03:23:26;4.90;;;2.50;;
40621;SDS011;26324;52.040;11.528;2023-05-13T03:25:56;3.15;;;2.50;;
40621;SDS011;26324;52.040;11.528;2023-05-13T03:28:23;4.60;;;2.80;;
40621;SDS011;26324;52.040;11.528;2023-05-13T03:30:51;6.25;;;2.53;;
40621;SDS011;26324;52.040;11.528;2023-05-13T03:33:19;4.32;;;2.95;;
40621;SDS011;26324;52.040;11.528;2023-05-13T03:35:47;6.38;;;2.92;;
40621;SDS011;26324;52.040;11.528;2023-05-13T03:38:21;4.47;;;2.50;;
40621;SDS011;26324;52.040;11.528;2023-05-13T03:40:50;5.40;;;2.38;;
40621;SDS011;26324;52.040;11.528;2023-05-13T03:43:18;5.88;;;2.88;;
40621;SDS011;26324;52.040;11.528;2023-05-13T03:45:52;4.80;;;2.67;;
40621;SDS011;26324;52.040;11.528;2023-05-13T03:48:22;6.38;;;3.10;;
40621;SDS011;26324;52.040;11.528;2023-05-13T03:51:05;3.78;;;2.80;;
40621;SDS011;26324;52.040;11.528;2023-05-13T03:53:34;4.15;;;3.15;;
40621;SDS011;26324;52.040;11.528;2023-05-13T03:56:02;3.90;;;2.65;;
40621;SDS011;26324;52.040;11.528;2023-05-13T03:58:30;5.18;;;2.70;;
40621;SDS011;26324;52.040;11.528;2023-05-13T04:00:58;7.60;;;2.85;;
40621;SDS011;26324;52.040;11.528;2023-05-13T04:03:29;4.97;;;3.25;;
40621;SDS011;26324;52.040;11.528;2023-05-13T04:05:57;6.25;;;2.95;;
40621;SDS011;26324;52.040;11.528;2023-05-13T04:08:25;5.70;;;2.60;;
40621;SDS011;26324;52.040;11.528;2023-05-13T04:10:53;4.70;;;3.10;;
40621;SDS011;26324;52.040;11.528;2023-05-13T04:13:25;7.57;;;3.38;;
40621;SDS011;26324;52.040;11.528;2023-05-13T04:15:53;5.30;;;3.13;;
40621;SDS011;26324;52.040;11.528;2023-05-13T04:18:29;4.68;;;2.40;;
40621;SDS011;26324;52.040;11.528;2023-05-13T04:20:57;10.25;;;3.15;;
40621;SDS011;26324;52.040;11.528;2023-05-13T04:23:24;6.03;;;2.90;;
40621;SDS011;26324;52.040;11.528;2023-05-13T04:25:52;5.82;;;3.10;;
40621;SDS011;26324;52.040;11.528;2023-05-13T04:28:19;5.15;;;3.20;;
40621;SDS011;26324;52.040;11.528;2023-05-13T04:30:49;4.63;;;3.55;;
40621;SDS011;26324;52.040;11.528;2023-05-13T04:33:16;4.90;;;3.30;;
40621;SDS011;26324;52.040;11.528;2023-05-13T04:35:45;4.72;;;2.97;;
40621;SDS011;26324;52.040;11.528;2023-05-13T04:38:12;6.38;;;2.80;;
40621;SDS011;26324;52.040;11.528;2023-05-13T04:40:40;4.65;;;2.85;;
40621;SDS011;26324;52.040;11.528;2023-05-13T04:43:10;6.00;;;3.20;;
40621;SDS011;26324;52.040;11.528;2023-05-13T04:48:24;4.68;;;3.03;;
40621;SDS011;26324;52.040;11.528;2023-05-13T04:50:56;4.80;;;2.80;;
40621;SDS011;26324;52.040;11.528;2023-05-13T04:53:24;5.50;;;3.15;;
40621;SDS011;26324;52.040;11.528;2023-05-13T04:55:54;5.82;;;3.58;;
40621;SDS011;26324;52.040;11.528;2023-05-13T04:58:27;4.60;;;3.00;;
40621;SDS011;26324;52.040;11.528;2023-05-13T05:00:55;6.28;;;3.03;;
40621;SDS011;26324;52.040;11.528;2023-05-13T05:03:23;4.85;;;2.90;;
40621;SDS011;26324;52.040;11.528;2023-05-13T05:05:50;5.35;;;3.13;;
40621;SDS011;26324;52.040;11.528;2023-05-13T05:08:18;6.53;;;3.30;;
40621;SDS011;26324;52.040;11.528;2023-05-13T05:10:47;6.43;;;3.13;;
40621;SDS011;26324;52.040;11.528;2023-05-13T05:13:16;5.75;;;3.60;;
40621;SDS011;26324;52.040;11.528;2023-05-13T05:15:43;5.80;;;2.97;;
40621;SDS011;26324;52.040;11.528;2023-05-13T05:18:13;5.50;;;3.05;;
40621;SDS011;26324;52.040;11.528;2023-05-13T05:20:43;3.97;;;3.25;;
40621;SDS011;26324;52.040;11.528;2023-05-13T05:23:18;9.40;;;3.30;;
40621;SDS011;26324;52.040;11.528;2023-05-13T05:25:46;5.95;;;3.00;;
40621;SDS011;26324;52.040;11.528;2023-05-13T05:28:15;5.45;;;3.53;;
40621;SDS011;26324;52.040;11.528;2023-05-13T05:30:44;7.68;;;3.47;;
40621;SDS011;26324;52.040;11.528;2023-05-13T05:33:18;6.55;;;3.45;;
40621;SDS011;26324;52.040;11.528;2023-05-13T05:35:47;4.72;;;3.50;;
40621;SDS011;26324;52.040;11.528;2023-05-13T05:38:16;5.88;;;3.25;;
40621;SDS011;26324;52.040;11.528;2023-05-13T05:43:13;4.45;;;3.15;;
40621;SDS011;26324;52.040;11.528;2023-05-13T05:45:40;5.60;;;3.08;;
40621;SDS011;26324;52.040;11.528;2023-05-13T05:48:11;5.18;;;3.22;;
40621;SDS011;26324;52.040;11.528;2023-05-13T05:50:39;4.90;;;3.05;;
40621;SDS011;26324;52.040;11.528;2023-05-13T05:53:08;5.07;;;3.13;;
40621;SDS011;26324;52.040;11.528;2023-05-13T05:55:37;3.55;;;3.00;;
40621;SDS011;26324;52.040;11.528;2023-05-13T05:58:08;4.85;;;3.10;;
40621;SDS011;26324;52.040;11.528;2023-05-13T06:00:38;4.78;;;3.35;;
40621;SDS011;26324;52.040;11.528;2023-05-13T06:03:05;6.15;;;3.08;;
40621;SDS011;26324;52.040;11.528;2023-05-13T06:05:32;4.30;;;2.78;;
40621;SDS011;26324;52.040;11.528;2023-05-13T06:08:01;4.97;;;3.08;;
40621;SDS011;26324;52.040;11.528;2023-05-13T06:10:29;4.78;;;3.55;;
40621;SDS011;26324;52.040;11.528;2023-05-13T06:12:57;4.40;;;3.35;;
40621;SDS011;26324;52.040;11.528;2023-05-13T06:15:27;4.55;;;3.20;;
40621;SDS011;26324;52.040;11.528;2023-05-13T06:17:55;5.65;;;3.47;;
40621;SDS011;26324;52.040;11.528;2023-05-13T06:20:24;6.20;;;3.40;;
40621;SDS011;26324;52.040;11.528;2023-05-13T06:22:51;7.53;;;3.47;;
40621;SDS011;26324;52.040;11.528;2023-05-13T06:25:18;5.50;;;3.42;;
40621;SDS011;26324;52.040;11.528;2023-05-13T06:27:45;5.82;;;3.47;;
40621;SDS011;26324;52.040;11.528;2023-05-13T06:30:13;7.03;;;4.03;;
40621;SDS011;26324;52.040;11.528;2023-05-13T06:32:41;6.88;;;3.25;;
40621;SDS011;26324;52.040;11.528;2023-05-13T06:35:26;7.18;;;3.35;;
40621;SDS011;26324;52.040;11.528;2023-05-13T06:37:53;6.35;;;3.75;;
40621;SDS011;26324;52.040;11.528;2023-05-13T06:40:21;6.43;;;3.60;;
40621;SDS011;26324;52.040;11.528;2023-05-13T06:42:49;4.88;;;3.22;;
40621;SDS011;26324;52.040;11.528;2023-05-13T06:45:21;5.63;;;3.97;;
40621;SDS011;26324;52.040;11.528;2023-05-13T06:47:50;5.55;;;3.78;;
40621;SDS011;26324;52.040;11.528;2023-05-13T06:50:18;6.50;;;3.53;;
40621;SDS011;26324;52.040;11.528;2023-05-13T06:52:46;6.30;;;3.60;;
40621;SDS011;26324;52.040;11.528;2023-05-13T06:55:13;6.13;;;4.15;;
40621;SDS011;26324;52.040;11.528;2023-05-13T06:57:42;7.95;;;4.05;;
40621;SDS011;26324;52.040;11.528;2023-05-13T07:00:12;6.75;;;3.83;;
40621;SDS011;26324;52.040;11.528;2023-05-13T07:02:40;6.07;;;4.07;;
40621;SDS011;26324;52.040;11.528;2023-05-13T07:05:10;6.85;;;4.50;;
40621;SDS011;26324;52.040;11.528;2023-05-13T07:07:37;5.68;;;3.53;;
40621;SDS011;26324;52.040;11.528;2023-05-13T07:10:05;5.88;;;3.65;;
40621;SDS011;26324;52.040;11.528;2023-05-13T07:12:32;6.70;;;3.63;;
40621;SDS011;26324;52.040;11.528;2023-05-13T07:14:59;6.22;;;3.88;;
40621;SDS011;26324;52.040;11.528;2023-05-13T07:17:27;4.75;;;3.70;;
40621;SDS011;26324;52.040;11.528;2023-05-13T07:19:54;5.47;;;3.83;;
40621;SDS011;26324;52.040;11.528;2023-05-13T07:22:22;5.28;;;3.70;;
40621;SDS011;26324;52.040;11.528;2023-05-13T07:24:50;7.18;;;4.22;;
40621;SDS011;26324;52.040;11.528;2023-05-13T07:27:17;7.25;;;3.78;;
40621;SDS011;26324;52.040;11.528;2023-05-13T07:29:44;5.95;;;4.00;;
40621;SDS011;26324;52.040;11.528;2023-05-13T07:32:11;8.20;;;4.43;;
40621;SDS011;26324;52.040;11.528;2023-05-13T07:34:39;6.05;;;3.50;;
40621;SDS011;26324;52.040;11.528;2023-05-13T07:37:06;8.65;;;4.28;;
40621;SDS011;26324;52.040;11.528;2023-05-13T07:39:34;5.32;;;3.47;;
40621;SDS011;26324;52.040;11.528;2023-05-13T07:42:01;5.85;;;3.60;;
40621;SDS011;26324;52.040;11.528;2023-05-13T07:44:29;7.32;;;3.85;;
40621;SDS011;26324;52.040;11.528;2023-05-13T07:46:56;7.63;;;3.67;;
40621;SDS011;26324;52.040;11.528;2023-05-13T07:49:23;6.10;;;3.63;;
40621;SDS011;26324;52.040;11.528;2023-05-13T07:51:50;5.32;;;3.47;;
40621;SDS011;26324;52.040;11.528;2023-05-13T07:54:18;7.18;;;3.90;;
40621;SDS011;26324;52.040;11.528;2023-05-13T07:56:45;4.75;;;3.78;;
40621;SDS011;26324;52.040;11.528;2023-05-13T07:59:13;6.63;;;3.90;;
40621;SDS011;26324;52.040;11.528;2023-05-13T08:01:41;4.18;;;3.72;;
40621;SDS011;26324;52.040;11.528;2023-05-13T08:04:09;4.47;;;3.83;;
40621;SDS011;26324;52.040;11.528;2023-05-13T08:06:36;5.97;;;3.90;;
40621;SDS011;26324;52.040;11.528;2023-05-13T08:09:04;6.72;;;3.75;;
40621;SDS011;26324;52.040;11.528;2023-05-13T08:11:32;4.70;;;3.42;;
40621;SDS011;26324;52.040;11.528;2023-05-13T08:13:59;5.88;;;3.72;;
40621;SDS011;26324;52.040;11.528;2023-05-13T08:16:26;5.50;;;3.90;;
40621;SDS011;26324;52.040;11.528;2023-05-13T08:18:53;6.18;;;3.90;;
40621;SDS011;26324;52.040;11.528;2023-05-13T08:21:21;5.70;;;4.00;;
40621;SDS011;26324;52.040;11.528;2023-05-13T08:23:49;4.13;;;3.15;;
40621;SDS011;26324;52.040;11.528;2023-05-13T08:26:19;6.07;;;3.20;;
40621;SDS011;26324;52.040;11.528;2023-05-13T08:28:46;5.57;;;3.53;;
40621;SDS011;26324;52.040;11.528;2023-05-13T08:31:14;5.75;;;3.28;;
40621;SDS011;26324;52.040;11.528;2023-05-13T08:33:42;7.60;;;3.70;;
40621;SDS011;26324;52.040;11.528;2023-05-13T08:36:11;5.43;;;3.47;;
40621;SDS011;26324;52.040;11.528;2023-05-13T08:38:39;5.43;;;3.70;;
40621;SDS011;26324;52.040;11.528;2023-05-13T08:41:11;5.53;;;3.42;;
40621;SDS011;26324;52.040;11.528;2023-05-13T08:43:39;6.97;;;4.32;;
40621;SDS011;26324;52.040;11.528;2023-05-13T08:46:09;4.10;;;3.58;;
40621;SDS011;26324;52.040;11.528;2023-05-13T08:48:38;5.72;;;3.50;;
40621;SDS011;26324;52.040;11.528;2023-05-13T08:51:07;4.18;;;2.67;;
40621;SDS011;26324;52.040;11.528;2023-05-13T08:53:36;4.75;;;3.10;;
40621;SDS011;26324;52.040;11.528;2023-05-13T08:56:06;3.10;;;2.40;;
40621;SDS011;26324;52.040;11.528;2023-05-13T08:58:34;3.80;;;2.28;;
40621;SDS011;26324;52.040;11.528;2023-05-13T09:01:02;3.42;;;2.15;;
40621;SDS011;26324;52.040;11.528;2023-05-13T09:03:31;3.67;;;2.17;;
40621;SDS011;26324;52.040;11.528;2023-05-13T09:06:01;3.72;;;1.63;;
40621;SDS011;26324;52.040;11.528;2023-05-13T09:08:29;2.05;;;1.70;;
40621;SDS011;26324;52.040;11.528;2023-05-13T09:10:58;8.35;;;2.00;;
40621;SDS011;26324;52.040;11.528;2023-05-13T09:13:26;4.13;;;2.10;;
40621;SDS011;26324;52.040;11.528;2023-05-13T09:15:53;5.05;;;2.00;;
40621;SDS011;26324;52.040;11.528;2023-05-13T09:18:21;2.00;;;1.60;;
40621;SDS011;26324;52.040;11.528;2023-05-13T09:20:57;2.75;;;1.90;;
40621;SDS011;26324;52.040;11.528;2023-05-13T09:23:54;3.05;;;1.80;;
40621;SDS011;26324;52.040;11.528;2023-05-13T09:26:28;2.38;;;2.00;;
40621;SDS011;26324;52.040;11.528;2023-05-13T09:29:30;4.93;;;2.17;;
40621;SDS011;26324;52.040;11.528;2023-05-13T09:31:52;2.42;;;1.55;;
40621;SDS011;26324;52.040;11.528;2023-05-13T09:34:25;5.72;;;1.95;;
40621;SDS011;26324;52.040;11.528;2023-05-13T09:37:03;4.85;;;1.92;;
40621;SDS011;26324;52.040;11.528;2023-05-13T09:39:33;3.50;;;1.65;;
40621;SDS011;26324;52.040;11.528;2023-05-13T09:42:05;2.78;;;1.98;;
40621;SDS011;26324;52.040;11.528;2023-05-13T09:44:40;2.97;;;1.77;;
40621;SDS011;26324;52.040;11.528;2023-05-13T09:47:15;4.78;;;1.52;;
40621;SDS011;26324;52.040;11.528;2023-05-13T09:49:43;3.90;;;1.80;;
40621;SDS011;26324;52.040;11.528;2023-05-13T09:52:18;2.00;;;1.30;;
40621;SDS011;26324;52.040;11.528;2023-05-13T09:54:48;3.22;;;1.90;;
40621;SDS011;26324;52.040;11.528;2023-05-13T09:57:15;4.07;;;2.17;;
40621;SDS011;26324;52.040;11.528;2023-05-13T09:59:42;3.00;;;1.85;;
40621;SDS011;26324;52.040;11.528;2023-05-13T10:02:09;3.05;;;1.75;;
40621;SDS011;26324;52.040;11.528;2023-05-13T10:04:40;4.90;;;1.67;;
40621;SDS011;26324;52.040;11.528;2023-05-13T10:07:08;3.13;;;1.85;;
40621;SDS011;26324;52.040;11.528;2023-05-13T10:09:37;3.83;;;1.98;;
40621;SDS011;26324;52.040;11.528;2023-05-13T10:12:06;3.25;;;1.73;;
40621;SDS011;26324;52.040;11.528;2023-05-13T10:14:35;2.30;;;1.90;;
40621;SDS011;26324;52.040;11.528;2023-05-13T10:17:03;3.90;;;1.70;;
40621;SDS011;26324;52.040;11.528;2023-05-13T10:19:32;2.63;;;1.67;;
40621;SDS011;26324;52.040;11.528;2023-05-13T10:22:00;2.92;;;2.10;;
40621;SDS011;26324;52.040;11.528;2023-05-13T10:24:28;3.05;;;1.73;;
40621;SDS011;26324;52.040;11.528;2023-05-13T10:26:56;2.88;;;1.77;;
40621;SDS011;26324;52.040;11.528;2023-05-13T10:29:24;4.50;;;2.05;;
40621;SDS011;26324;52.040;11.528;2023-05-13T10:31:52;2.45;;;2.03;;
40621;SDS011;26324;52.040;11.528;2023-05-13T10:34:21;2.15;;;1.80;;
40621;SDS011;26324;52.040;11.528;2023-05-13T10:40:12;2.42;;;1.52;;
40621;SDS011;26324;52.040;11.528;2023-05-13T10:43:07;1.92;;;1.50;;
40621;SDS011;26324;52.040;11.528;2023-05-13T10:45:36;2.60;;;1.52;;
40621;SDS011;26324;52.040;11.528;2023-05-13T10:48:07;2.83;;;1.60;;
40621;SDS011;26324;52.040;11.528;2023-05-13T10:50:37;1.95;;;1.77;;
40621;SDS011;26324;52.040;11.528;2023-05-13T10:53:08;5.13;;;1.90;;
40621;SDS011;26324;52.040;11.528;2023-05-13T10:55:45;2.55;;;1.65;;
40621;SDS011;26324;52.040;11.528;2023-05-13T10:58:18;2.50;;;1.88;;
40621;SDS011;26324;52.040;11.528;2023-05-13T11:00:48;5.93;;;2.53;;
40621;SDS011;26324;52.040;11.528;2023-05-13T11:05:45;4.22;;;2.33;;
40621;SDS011;26324;52.040;11.528;2023-05-13T11:08:37;2.95;;;1.92;;
40621;SDS011;26324;52.040;11.528;2023-05-13T11:13:48;3.85;;;1.95;;
40621;SDS011;26324;52.040;11.528;2023-05-13T11:16:41;2.88;;;1.83;;
40621;SDS011;26324;52.040;11.528;2023-05-13T11:19:18;2.42;;;1.80;;
40621;SDS011;26324;52.040;11.528;2023-05-13T11:21:54;3.70;;;2.40;;
40621;SDS011;26324;52.040;11.528;2023-05-13T11:24:23;4.75;;;2.20;;
40621;SDS011;26324;52.040;11.528;2023-05-13T11:26:52;2.92;;;2.15;;
40621;SDS011;26324;52.040;11.528;2023-05-13T11:29:31;2.90;;;2.30;;
40621;SDS011;26324;52.040;11.528;2023-05-13T11:32:00;2.63;;;2.20;;
40621;SDS011;26324;52.040;11.528;2023-05-13T11:34:29;2.80;;;1.95;;
40621;SDS011;26324;52.040;11.528;2023-05-13T11:39:30;3.25;;;2.00;;
40621;SDS011;26324;52.040;11.528;2023-05-13T11:41:58;2.92;;;1.98;;
40621;SDS011;26324;52.040;11.528;2023-05-13T11:44:27;2.78;;;2.30;;
40621;SDS011;26324;52.040;11.528;2023-05-13T11:49:32;3.25;;;2.17;;
40621;SDS011;26324;52.040;11.528;2023-05-13T11:52:15;2.88;;;2.08;;
40621;SDS011;26324;52.040;11.528;2023-05-13T11:54:49;2.10;;;1.77;;
40621;SDS011;26324;52.040;11.528;2023-05-13T11:57:19;5.10;;;1.98;;
40621;SDS011;26324;52.040;11.528;2023-05-13T12:00:01;2.92;;;2.08;;
40621;SDS011;26324;52.040;11.528;2023-05-13T12:02:34;2.72;;;2.13;;
40621;SDS011;26324;52.040;11.528;2023-05-13T12:05:04;2.35;;;2.15;;
40621;SDS011;26324;52.040;11.528;2023-05-13T12:07:37;4.32;;;2.35;;
40621;SDS011;26324;52.040;11.528;2023-05-13T12:10:05;3.22;;;1.70;;
40621;SDS011;26324;52.040;11.528;2023-05-13T12:12:34;2.20;;;1.67;;
40621;SDS011;26324;52.040;11.528;2023-05-13T12:15:06;3.28;;;2.08;;
40621;SDS011;26324;52.040;11.528;2023-05-13T12:17:44;3.15;;;2.00;;
40621;SDS011;26324;52.040;11.528;2023-05-13T12:28:08;4.07;;;2.15;;
40621;SDS011;26324;52.040;11.528;2023-05-13T12:30:40;3.28;;;2.30;;
40621;SDS011;26324;52.040;11.528;2023-05-13T12:33:19;4.13;;;2.47;;
40621;SDS011;26324;52.040;11.528;2023-05-13T12:35:52;3.08;;;2.10;;
40621;SDS011;26324;52.040;11.528;2023-05-13T12:38:22;3.13;;;2.40;;
40621;SDS011;26324;52.040;11.528;2023-05-13T12:40:50;5.22;;;2.75;;
40621;SDS011;26324;52.040;11.528;2023-05-13T12:43:19;2.95;;;2.13;;
40621;SDS011;26324;52.040;11.528;2023-05-13T12:45:46;6.40;;;2.35;;
40621;SDS011;26324;52.040;11.528;2023-05-13T12:48:21;2.97;;;2.67;;
40621;SDS011;26324;52.040;11.528;2023-05-13T12:50:49;5.65;;;2.80;;
40621;SDS011;26324;52.040;11.528;2023-05-13T12:53:17;5.13;;;2.75;;
40621;SDS011;26324;52.040;11.528;2023-05-13T12:55:44;2.97;;;2.40;;
40621;SDS011;26324;52.040;11.528;2023-05-13T12:58:11;3.70;;;3.40;;
40621;SDS011;26324;52.040;11.528;2023-05-13T13:00:39;4.53;;;2.35;;
40621;SDS011;26324;52.040;11.528;2023-05-13T13:03:06;3.25;;;2.25;;
40621;SDS011;26324;52.040;11.528;2023-05-13T13:05:34;3.15;;;2.65;;
40621;SDS011;26324;52.040;11.528;2023-05-13T13:08:01;4.78;;;2.33;;
40621;SDS011;26324;52.040;11.528;2023-05-13T13:10:31;2.80;;;2.50;;
40621;SDS011;26324;52.040;11.528;2023-05-13T13:12:58;3.75;;;2.85;;
40621;SDS011;26324;52.040;11.528;2023-05-13T13:15:25;6.03;;;2.40;;
40621;SDS011;26324;52.040;11.528;2023-05-13T13:17:52;2.92;;;2.30;;
40621;SDS011;26324;52.040;11.528;2023-05-13T13:20:20;2.70;;;2.50;;
40621;SDS011;26324;52.040;11.528;2023-05-13T13:22:48;3.72;;;2.80;;
40621;SDS011;26324;52.040;11.528;2023-05-13T13:25:15;4.68;;;2.33;;
40621;SDS011;26324;52.040;11.528;2023-05-13T13:27:42;3.78;;;2.60;;
40621;SDS011;26324;52.040;11.528;2023-05-13T13:30:10;3.00;;;2.70;;
40621;SDS011;26324;52.040;11.528;2023-05-13T13:32:37;6.05;;;2.80;;
40621;SDS011;26324;52.040;11.528;2023-05-13T13:35:05;4.03;;;2.50;;
40621;SDS011;26324;52.040;11.528;2023-05-13T13:37:32;3.60;;;2.35;;
40621;SDS011;26324;52.040;11.528;2023-05-13T13:40:01;6.32;;;2.80;;
40621;SDS011;26324;52.040;11.528;2023-05-13T13:42:29;3.42;;;2.60;;
40621;SDS011;26324;52.040;11.528;2023-05-13T13:45:10;3.17;;;2.80;;
40621;SDS011;26324;52.040;11.528;2023-05-13T13:47:40;6.15;;;2.58;;
40621;SDS011;26324;52.040;11.528;2023-05-13T13:50:08;10.82;;;3.80;;
40621;SDS011;26324;52.040;11.528;2023-05-13T13:52:36;6.10;;;2.53;;
40621;SDS011;26324;52.040;11.528;2023-05-13T13:55:03;6.25;;;2.85;;
40621;SDS011;26324;52.040;11.528;2023-05-13T13:57:31;3.83;;;2.30;;
40621;SDS011;26324;52.040;11.528;2023-05-13T13:59:58;2.75;;;2.28;;
40621;SDS011;26324;52.040;11.528;2023-05-13T14:02:25;3.40;;;2.20;;
40621;SDS011;26324;52.040;11.528;2023-05-13T14:04:52;3.25;;;2.80;;
40621;SDS011;26324;52.040;11.528;2023-05-13T14:07:20;3.72;;;3.20;;
40621;SDS011;26324;52.040;11.528;2023-05-13T14:09:47;15.93;;;5.53;;
40621;SDS011;26324;52.040;11.528;2023-05-13T14:12:15;10.43;;;4.05;;
40621;SDS011;26324;52.040;11.528;2023-05-13T14:14:43;3.30;;;2.80;;
40621;SDS011;26324;52.040;11.528;2023-05-13T14:17:10;3.10;;;2.42;;
40621;SDS011;26324;52.040;11.528;2023-05-13T14:19:40;4.53;;;2.92;;
40621;SDS011;26324;52.040;11.528;2023-05-13T14:22:07;7.97;;;2.83;;
40621;SDS011;26324;52.040;11.528;2023-05-13T14:24:34;4.43;;;3.00;;
40621;SDS011;26324;52.040;11.528;2023-05-13T14:27:02;5.05;;;2.85;;
40621;SDS011;26324;52.040;11.528;2023-05-13T14:29:29;4.32;;;3.13;;
40621;SDS011;26324;52.040;11.528;2023-05-13T14:31:56;3.25;;;2.28;;
40621;SDS011;26324;52.040;11.528;2023-05-13T14:34:28;2.85;;;2.58;;
40621;SDS011;26324;52.040;11.528;2023-05-13T14:36:55;2.90;;;2.17;;
40621;SDS011;26324;52.040;11.528;2023-05-13T14:39:22;3.28;;;2.13;;
40621;SDS011;26324;52.040;11.528;2023-05-13T14:41:50;3.60;;;2.60;;
40621;SDS011;26324;52.040;11.528;2023-05-13T14:44:17;3.08;;;2.58;;
40621;SDS011;26324;52.040;11.528;2023-05-13T14:46:44;3.60;;;2.28;;
40621;SDS011;26324;52.040;11.528;2023-05-13T14:49:12;4.22;;;2.90;;
40621;SDS011;26324;52.040;11.528;2023-05-13T14:51:39;5.47;;;3.20;;
40621;SDS011;26324;52.040;11.528;2023-05-13T14:54:06;4.43;;;2.40;;
40621;SDS011;26324;52.040;11.528;2023-05-13T14:56:34;5.82;;;2.45;;
40621;SDS011;26324;52.040;11.528;2023-05-13T14:59:01;3.38;;;2.53;;
40621;SDS011;26324;52.040;11.528;2023-05-13T15:01:29;2.78;;;2.00;;
40621;SDS011;26324;52.040;11.528;2023-05-13T15:03:56;4.18;;;2.53;;
40621;SDS011;26324;52.040;11.528;2023-05-13T15:06:25;4.32;;;2.15;;
40621;SDS011;26324;52.040;11.528;2023-05-13T15:08:52;3.85;;;2.45;;
40621;SDS011;26324;52.040;11.528;2023-05-13T15:11:20;3.78;;;2.55;;
40621;SDS011;26324;52.040;11.528;2023-05-13T15:13:47;4.47;;;2.35;;
40621;SDS011;26324;52.040;11.528;2023-05-13T15:16:14;3.33;;;2.65;;